Time;durP1;ratioP1;P1;durP2;ratioP2;P2;SDS_P1;SDS_P2;PMS_P1;PMS_P2;Temp;Humidity;BMP_temperature;BMP_pressure;BME280_temperature;BME280_humidity;BME280_pressure;Samples;Min_cycle;Max_cycle;Signal;HPM_P1;HPM_P2
2022/11/07 00:00:29;;;;;;;20.87;12.97;;;;;;;16.81;100.00;101837.31;2073003;28;20178;-67
2022/11/07 00:01:30;;;;;;;22.80;13.17;;;;;;;16.83;100.00;101842.47;2072527;28;20228;-67
2022/11/07 00:02:30;;;;;;;20.10;13.47;;;;;;;16.55;100.00;101802.13;2073037;28;20274;-67
2022/11/07 00:03:31;;;;;;;19.47;13.30;;;;;;;16.81;100.00;101840.13;2073069;28;20198;-67
2022/11/07 00:04:31;;;;;;;24.27;14.10;;;;;;;16.82;100.00;101841.69;2072630;28;20193;-67
2022/11/07 00:05:32;;;;;;;20.03;12.97;;;;;;;16.72;100.00;101828.78;2072047;28;20201;-67
2022/11/07 00:06:32;;;;;;;22.10;13.83;;;;;;;16.81;100.00;101840.88;2072516;28;20675;-67
2022/11/07 00:07:33;;;;;;;20.03;13.20;;;;;;;16.83;100.00;101840.44;2072094;28;20269;-67
2022/11/07 00:08:33;;;;;;;20.13;13.63;;;;;;;16.84;100.00;101847.59;2071981;28;20190;-67
2022/11/07 00:09:34;;;;;;;18.17;13.27;;;;;;;16.85;100.00;101846.41;2072156;28;20693;-67
2022/11/07 00:10:34;;;;;;;20.33;13.03;;;;;;;16.85;100.00;101838.00;2071717;28;20221;-67
2022/11/07 00:11:34;;;;;;;22.10;13.47;;;;;;;16.83;100.00;101845.28;2072889;28;20221;-67
2022/11/07 00:12:35;;;;;;;19.03;13.23;;;;;;;16.82;100.00;101847.28;2072545;28;20738;-67
2022/11/07 00:13:36;;;;;;;18.43;12.10;;;;;;;16.81;100.00;101848.50;2072871;28;20698;-67
2022/11/07 00:14:36;;;;;;;22.10;13.10;;;;;;;16.81;100.00;101843.69;2071991;28;20186;-67
2022/11/07 00:15:36;;;;;;;19.70;13.43;;;;;;;16.83;100.00;101850.88;2072637;28;20214;-67
2022/11/07 00:16:37;;;;;;;22.73;12.87;;;;;;;16.84;100.00;101853.22;2072800;28;20236;-67
2022/11/07 00:17:37;;;;;;;16.70;12.90;;;;;;;16.83;100.00;101858.03;2072347;28;20200;-67
2022/11/07 00:18:38;;;;;;;17.63;12.43;;;;;;;16.82;100.00;101858.47;2072170;28;20232;-67
2022/11/07 00:19:38;;;;;;;15.93;12.73;;;;;;;16.83;100.00;101853.69;2071978;28;20990;-67
2022/11/07 00:20:39;;;;;;;19.87;13.80;;;;;;;16.66;100.00;101834.13;2072954;28;20199;-67
2022/11/07 00:21:40;;;;;;;21.63;13.10;;;;;;;16.83;100.00;101862.84;2072720;28;20942;-67
2022/11/07 00:22:40;;;;;;;21.00;13.23;;;;;;;16.80;100.00;101850.53;2071750;28;20702;-67
2022/11/07 00:23:41;;;;;;;19.03;12.73;;;;;;;15.97;100.00;101723.06;2072586;28;20268;-67
2022/11/07 00:24:41;;;;;;;21.73;12.83;;;;;;;16.83;100.00;101856.47;2072032;28;20218;-67
2022/11/07 00:25:42;;;;;;;23.07;12.93;;;;;;;16.80;100.00;101861.72;2073139;28;20420;-67
2022/11/07 00:26:44;;;;;;;20.13;13.43;;;;;;;16.83;100.00;101848.06;2072668;28;20189;-67
2022/11/07 00:27:44;;;;;;;20.87;13.37;;;;;;;16.81;100.00;101848.50;2072524;28;20279;-67
2022/11/07 00:28:45;;;;;;;16.90;12.93;;;;;;;16.81;100.00;101851.31;2072017;28;20460;-67
2022/11/07 00:29:46;;;;;;;17.60;12.73;;;;;;;16.81;100.00;101851.31;2071991;28;20579;-67
2022/11/07 00:30:46;;;;;;;22.47;13.00;;;;;;;16.81;100.00;101849.28;2072708;28;20762;-67
2022/11/07 00:31:47;;;;;;;26.40;13.47;;;;;;;16.62;100.00;101820.72;2072048;28;20174;-67
2022/11/07 00:32:48;;;;;;;18.63;13.03;;;;;;;16.74;100.00;101854.31;2072515;28;20659;-67
2022/11/07 00:33:48;;;;;;;22.63;13.43;;;;;;;16.76;100.00;101849.84;2073196;28;21048;-67
2022/11/07 00:34:49;;;;;;;19.53;12.63;;;;;;;16.76;100.00;101851.88;2072533;28;20190;-67
2022/11/07 00:35:49;;;;;;;21.93;12.97;;;;;;;16.75;100.00;101851.06;2072866;28;20194;-67
2022/11/07 00:36:50;;;;;;;18.53;12.50;;;;;;;16.77;100.00;101861.81;2072764;28;20655;-67
2022/11/07 00:37:53;;;;;;;17.37;12.57;;;;;;;16.77;100.00;101857.03;2072617;28;20212;-67
2022/11/07 00:38:54;;;;;;;19.33;13.00;;;;;;;16.79;100.00;101856.56;2071811;28;20189;-67
2022/11/07 00:39:54;;;;;;;16.90;12.17;;;;;;;16.79;100.00;101856.56;2072259;28;20585;-67
2022/11/07 00:40:56;;;;;;;19.10;12.70;;;;;;;16.79;100.00;101859.34;2072579;28;20515;-67
2022/11/07 00:41:56;;;;;;;20.23;13.13;;;;;;;16.74;100.00;101851.50;2073141;28;20211;-67
2022/11/07 00:42:57;;;;;;;16.77;12.63;;;;;;;16.71;100.00;101838.41;2072645;28;20483;-67
2022/11/07 00:43:57;;;;;;;21.50;12.27;;;;;;;16.30;100.00;101788.81;2072763;28;20186;-67
2022/11/07 00:44:57;;;;;;;17.97;12.70;;;;;;;16.78;100.00;101850.19;2072286;28;20225;-67
2022/11/07 00:46:02;;;;;;;20.87;12.67;;;;;;;16.51;100.00;101809.84;2072121;28;20187;-67
2022/11/07 00:47:03;;;;;;;21.60;12.70;;;;;;;16.80;100.00;101853.31;2072617;28;20201;-67
2022/11/07 00:48:04;;;;;;;21.07;12.10;;;;;;;16.77;100.00;101853.44;2072297;28;20477;-67
2022/11/07 00:49:04;;;;;;;18.87;12.27;;;;;;;16.72;100.00;101851.19;2071866;28;20223;-67
2022/11/07 00:50:05;;;;;;;21.13;12.67;;;;;;;16.18;100.00;101764.41;2072503;28;20225;-67
2022/11/07 00:51:13;;;;;;;19.27;13.40;;;;;;;16.70;100.00;101850.84;2072144;28;20675;-67
2022/11/07 00:52:13;;;;;;;19.97;13.13;;;;;;;16.69;100.00;101852.84;2072435;28;20941;-67
2022/11/07 00:53:13;;;;;;;16.87;12.63;;;;;;;16.72;100.00;101859.56;2072193;28;20880;-67
2022/11/07 00:54:14;;;;;;;20.13;12.80;;;;;;;16.70;100.00;101854.41;2072465;28;20252;-67
2022/11/07 00:55:14;;;;;;;21.70;13.50;;;;;;;16.73;100.00;101857.56;2072440;28;20656;-67
2022/11/07 00:56:17;;;;;;;14.33;12.23;;;;;;;16.71;100.00;101853.19;2072612;28;20273;-67
2022/11/07 00:57:18;;;;;;;15.77;12.40;;;;;;;16.73;100.00;101854.78;2071544;28;20187;-67
2022/11/07 00:58:18;;;;;;;18.90;12.30;;;;;;;16.71;100.00;101853.19;2072035;28;20790;-67
2022/11/07 00:59:19;;;;;;;19.80;12.90;;;;;;;16.69;100.00;101846.47;2072832;28;20211;-67
2022/11/07 01:00:19;;;;;;;18.40;12.60;;;;;;;16.69;100.00;101857.66;2071681;28;20190;-67
2022/11/07 01:01:22;;;;;;;21.30;12.63;;;;;;;16.68;100.00;101850.50;2071712;28;20325;-67
2022/11/07 01:02:23;;;;;;;17.53;11.87;;;;;;;16.09;100.00;101752.28;2071454;28;20184;-67
2022/11/07 01:06:03;;;;;;;18.07;11.80;;;;;;;16.69;100.00;101852.06;2071578;28;20422;-67
2022/11/07 01:07:05;;;;;;;20.30;12.60;;;;;;;16.68;100.00;101850.50;2072379;28;20431;-67
2022/11/07 01:08:06;;;;;;;17.33;12.07;;;;;;;16.68;100.00;101851.28;2071410;28;20498;-67
2022/11/07 01:09:09;;;;;;;20.27;13.20;;;;;;;16.71;100.00;101855.22;2071969;28;20424;-67
2022/11/07 01:10:09;;;;;;;20.40;11.80;;;;;;;16.69;100.00;101852.84;2072190;28;20198;-67
2022/11/07 01:11:09;;;;;;;18.03;12.47;;;;;;;16.71;100.00;101853.19;2072475;28;20436;-67
2022/11/07 01:12:10;;;;;;;17.73;12.20;;;;;;;16.72;100.00;101851.19;2072178;28;20265;-67
2022/11/07 01:13:10;;;;;;;18.43;11.80;;;;;;;16.70;100.00;101848.81;2072867;28;20640;-67
2022/11/07 01:14:12;;;;;;;17.83;11.73;;;;;;;16.71;100.00;101855.97;2072513;28;20212;-67
2022/11/07 01:15:13;;;;;;;16.43;12.13;;;;;;;16.32;100.00;101793.97;2070812;28;20193;-67
2022/11/07 01:16:13;;;;;;;17.60;12.20;;;;;;;16.69;100.00;101855.66;2072337;28;20456;-67
2022/11/07 01:17:14;;;;;;;19.80;12.73;;;;;;;16.68;100.00;101856.09;2072647;28;20612;-67
2022/11/07 01:18:14;;;;;;;17.80;12.00;;;;;;;16.39;100.00;101816.19;2072030;28;20179;-67
2022/11/07 01:19:15;;;;;;;22.70;12.07;;;;;;;16.63;100.00;101840.63;2072448;28;20590;-67
2022/11/07 01:20:16;;;;;;;19.30;12.37;;;;;;;16.69;100.00;101857.66;2079782;28;20562;-67
2022/11/07 01:21:16;;;;;;;15.30;11.83;;;;;;;16.68;100.00;101858.88;2080366;28;20180;-67
2022/11/07 01:22:17;;;;;;;16.37;12.67;;;;;;;16.67;100.00;101854.53;2072607;28;20194;-67
2022/11/07 01:23:18;;;;;;;19.37;11.57;;;;;;;16.67;100.00;101852.53;2079854;28;20753;-67
2022/11/07 01:24:18;;;;;;;14.90;11.53;;;;;;;16.67;100.00;101852.53;2079916;28;20587;-67
2022/11/07 01:25:19;;;;;;;22.73;12.77;;;;;;;16.69;100.00;101850.06;2072422;28;20208;-67
2022/11/07 01:26:19;;;;;;;19.47;12.87;;;;;;;16.69;100.00;101857.66;2071464;28;20194;-67
2022/11/07 01:27:20;;;;;;;19.30;12.23;;;;;;;16.66;100.00;101852.97;2071708;28;20181;-67
2022/11/07 01:28:20;;;;;;;18.10;11.77;;;;;;;16.67;100.00;101851.72;2071745;28;20956;-67
2022/11/07 01:29:21;;;;;;;18.90;12.67;;;;;;;16.57;100.00;101832.47;2072103;28;21205;-67
2022/11/07 01:30:21;;;;;;;20.20;12.50;;;;;;;16.65;100.00;101851.41;2072397;28;20189;-67
2022/11/07 01:31:22;;;;;;;17.00;11.43;;;;;;;16.64;100.00;101855.44;2072623;28;20186;-67
2022/11/07 01:32:22;;;;;;;19.07;12.73;;;;;;;16.60;100.00;101840.75;2072586;28;20189;-67
2022/11/07 01:33:23;;;;;;;18.83;11.90;;;;;;;16.63;100.00;101855.88;2072592;28;20198;-67
2022/11/07 01:34:23;;;;;;;17.63;12.23;;;;;;;16.63;100.00;101849.03;2072401;28;20186;-67
2022/11/07 01:35:23;;;;;;;21.90;12.53;;;;;;;16.65;100.00;101848.59;2071573;28;20182;-67
2022/11/07 01:36:24;;;;;;;17.37;11.87;;;;;;;16.65;100.00;101846.56;2071516;28;20188;-67
2022/11/07 01:37:24;;;;;;;17.20;11.73;;;;;;;16.65;100.00;101854.97;2072534;28;20276;-67
2022/11/07 01:38:25;;;;;;;21.27;12.47;;;;;;;16.63;100.00;101857.44;2072330;28;20236;-67
2022/11/07 01:39:25;;;;;;;18.80;11.87;;;;;;;16.66;100.00;101855.75;2072356;28;20190;-67
2022/11/07 01:40:26;;;;;;;18.40;12.27;;;;;;;16.64;100.00;101850.59;2072494;28;20247;-67
2022/11/07 01:41:30;;;;;;;16.00;11.50;;;;;;;15.76;100.00;101709.69;2072048;28;20619;-67
2022/11/07 01:42:30;;;;;;;17.73;12.13;;;;;;;16.66;100.00;101856.53;2071417;28;20286;-67
2022/11/07 01:44:00;;;;;;;18.60;11.70;;;;;;;16.64;100.00;101861.03;2071511;28;20459;-67
2022/11/07 01:45:01;;;;;;;17.10;11.73;;;;;;;16.63;100.00;101856.63;2062798;28;20609;-67
2022/11/07 01:46:01;;;;;;;18.87;11.27;;;;;;;16.34;100.00;101814.66;2063258;28;20433;-67
2022/11/07 01:47:02;;;;;;;19.03;11.97;;;;;;;16.58;100.00;101854.38;2071002;28;20579;-67
2022/11/07 01:48:02;;;;;;;22.43;12.10;;;;;;;16.33;100.00;101818.69;2071500;28;20229;-67
2022/11/07 01:49:21;;;;;;;15.93;11.80;;;;;;;16.62;100.00;101854.31;2072533;28;20629;-67
2022/11/07 01:50:22;;;;;;;18.90;12.17;;;;;;;16.07;100.00;101771.50;2071018;28;20291;-67
2022/11/07 01:51:23;;;;;;;16.57;11.80;;;;;;;16.57;100.00;101852.81;2072708;28;20482;-67
2022/11/07 01:52:32;;;;;;;21.80;12.50;;;;;;;16.58;100.00;101856.41;2071618;28;20525;-67
2022/11/07 01:53:34;;;;;;;15.77;12.27;;;;;;;16.58;100.00;101853.63;2071461;28;20425;-67
2022/11/07 01:54:44;;;;;;;16.50;12.33;;;;;;;16.57;100.00;101857.66;2071204;28;20443;-67
2022/11/07 01:55:45;;;;;;;19.00;12.50;;;;;;;16.57;100.00;101866.06;2072238;28;20431;-67
2022/11/07 01:56:46;;;;;;;17.63;12.53;;;;;;;16.54;100.00;101857.28;2072260;28;20448;-67
2022/11/07 01:57:49;;;;;;;20.20;11.57;;;;;;;16.55;100.00;101861.66;2071980;28;20199;-67
2022/11/07 01:58:52;;;;;;;20.20;12.50;;;;;;;16.53;100.00;101855.72;2070751;28;20196;-67
2022/11/07 01:59:55;;;;;;;16.97;12.47;;;;;;;16.55;100.00;101860.88;2072145;28;21002;-67
2022/11/07 02:00:55;;;;;;;19.43;12.07;;;;;;;16.55;100.00;101861.66;2071554;28;20421;-67
2022/11/07 02:01:56;;;;;;;19.43;12.03;;;;;;;16.47;100.00;101844.75;2072264;28;20426;-67
2022/11/07 02:03:02;;;;;;;17.60;11.50;;;;;;;16.57;100.00;101860.44;2072234;28;20185;-67
2022/11/07 02:04:03;;;;;;;19.27;11.97;;;;;;;16.57;100.00;101861.22;2072294;28;20193;-67
2022/11/07 02:05:06;;;;;;;18.87;12.20;;;;;;;15.84;100.00;101746.63;2070604;28;20428;-67
2022/11/07 02:06:12;;;;;;;17.23;12.10;;;;;;;16.56;100.00;101859.66;2072264;28;20492;-67
2022/11/07 02:07:19;;;;;;;19.37;12.40;;;;;;;16.52;100.00;101867.38;2072154;28;20474;-67
2022/11/07 02:08:21;;;;;;;20.70;13.23;;;;;;;16.56;100.00;101868.06;2071596;28;20469;-67
2022/11/07 02:09:22;;;;;;;19.27;12.63;;;;;;;16.55;100.00;101860.88;2072069;28;20447;-67
2022/11/07 02:10:22;;;;;;;22.03;12.33;;;;;;;16.56;100.00;101862.44;2071342;28;20526;-67
2022/11/07 02:11:23;;;;;;;19.73;12.43;;;;;;;16.58;100.00;101869.19;2071396;28;20655;-67
2022/11/07 02:12:25;;;;;;;18.43;11.90;;;;;;;16.51;100.00;101865.78;2071068;28;20247;-67
2022/11/07 02:13:27;;;;;;;18.17;11.90;;;;;;;16.23;100.00;101832.97;2071443;28;21566;-67
2022/11/07 02:14:28;;;;;;;17.43;12.03;;;;;;;16.49;100.00;101869.03;2070681;28;21021;-67
2022/11/07 02:15:29;;;;;;;16.93;12.77;;;;;;;16.52;100.00;101869.41;2071108;28;20838;-67
2022/11/07 02:16:31;;;;;;;17.80;12.40;;;;;;;15.99;100.00;101786.94;2072311;28;20185;-67
2022/11/07 02:17:32;;;;;;;20.90;12.00;;;;;;;16.52;100.00;101876.56;2072025;28;20552;-67
2022/11/07 02:18:35;;;;;;;16.47;12.30;;;;;;;16.52;100.00;101881.34;2071807;28;20447;-67
2022/11/07 02:19:41;;;;;;;18.20;11.83;;;;;;;16.18;100.00;101817.53;2071290;28;20200;-67
2022/11/07 02:20:42;;;;;;;23.00;12.70;;;;;;;16.53;100.00;101875.31;2070763;28;20922;-67
2022/11/07 02:21:42;;;;;;;18.70;11.90;;;;;;;16.55;100.00;101874.88;2070941;28;20814;-67
2022/11/07 02:22:59;;;;;;;22.47;11.90;;;;;;;16.54;100.00;101879.69;2071794;28;20272;-67
2022/11/07 02:24:16;;;;;;;21.97;12.70;;;;;;;16.55;100.00;101872.09;2072049;28;20188;-67
2022/11/07 02:25:18;;;;;;;16.10;11.43;;;;;;;16.00;100.00;101799.69;2071294;28;20455;-67
2022/11/07 02:26:19;;;;;;;19.60;12.27;;;;;;;16.52;100.00;101877.78;2071226;28;20420;-67
2022/11/07 02:27:23;;;;;;;20.60;12.03;;;;;;;16.53;100.00;101878.13;2071677;28;20436;-67
2022/11/07 02:28:26;;;;;;;18.17;12.37;;;;;;;16.56;100.00;101882.03;2071113;28;20224;-67
2022/11/07 02:29:27;;;;;;;19.33;12.17;;;;;;;16.53;100.00;101880.91;2071579;28;20945;-67
2022/11/07 02:30:32;;;;;;;20.83;12.37;;;;;;;16.57;100.00;101882.84;2072042;28;20821;-67
2022/11/07 02:31:33;;;;;;;16.63;11.80;;;;;;;15.88;100.00;101792.03;2072265;28;20601;-67
2022/11/07 02:32:33;;;;;;;18.03;12.50;;;;;;;16.56;100.00;101884.84;2070762;28;20431;-67
2022/11/07 02:33:33;;;;;;;22.07;12.50;;;;;;;16.54;100.00;101887.31;2072025;28;20209;-67
2022/11/07 02:34:34;;;;;;;19.20;12.57;;;;;;;16.54;100.00;101892.91;2071879;28;20221;-67
2022/11/07 02:35:40;;;;;;;18.13;13.07;;;;;;;16.52;100.00;101890.53;2071702;28;20650;-67
2022/11/07 02:36:40;;;;;;;17.43;12.53;;;;;;;16.50;100.00;101889.41;2071851;28;20192;-67
2022/11/07 02:37:41;;;;;;;19.90;12.20;;;;;;;16.50;100.00;101886.63;2072098;28;20435;-67
2022/11/07 02:38:43;;;;;;;23.17;12.67;;;;;;;16.38;100.00;101874.13;2071378;28;20616;-67
2022/11/07 02:39:43;;;;;;;17.00;12.33;;;;;;;15.79;100.00;101787.06;2070969;28;20580;-67
2022/11/07 02:40:48;;;;;;;18.20;12.70;;;;;;;16.00;100.00;101831.22;2071605;28;20470;-67
2022/11/07 02:41:50;;;;;;;18.37;12.37;;;;;;;15.83;100.00;101789.78;2071834;28;20223;-67
2022/11/07 02:42:51;;;;;;;23.37;13.00;;;;;;;16.42;100.00;101880.44;2070518;28;21250;-67
2022/11/07 02:43:56;;;;;;;19.77;12.83;;;;;;;16.49;100.00;101891.41;2072023;28;20466;-67
2022/11/07 02:44:56;;;;;;;20.07;12.53;;;;;;;16.48;100.00;101895.44;2071493;28;20235;-67
2022/11/07 02:46:01;;;;;;;19.57;11.90;;;;;;;16.49;100.00;101894.22;2070899;28;20940;-67
2022/11/07 02:47:01;;;;;;;17.50;12.90;;;;;;;16.39;100.00;101875.72;2071627;28;20722;-67
2022/11/07 02:48:02;;;;;;;18.43;12.10;;;;;;;16.45;100.00;101889.97;2071873;28;21019;-67
2022/11/07 02:49:03;;;;;;;16.00;12.37;;;;;;;16.50;100.00;101903.41;2070993;28;20688;-67
2022/11/07 02:50:07;;;;;;;16.13;12.93;;;;;;;16.49;100.00;101894.22;2071375;28;20287;-67
2022/11/07 02:51:08;;;;;;;19.60;13.40;;;;;;;16.49;100.00;101896.25;2071907;28;20676;-67
2022/11/07 02:52:08;;;;;;;17.00;12.50;;;;;;;16.49;100.00;101897.00;2071755;28;20496;-67
2022/11/07 02:53:09;;;;;;;17.80;12.50;;;;;;;16.48;100.00;101903.03;2070751;28;20286;-67
2022/11/07 02:54:09;;;;;;;17.03;12.30;;;;;;;16.47;100.00;101897.91;2071299;28;20186;-67
2022/11/07 02:55:11;;;;;;;18.70;12.47;;;;;;;16.49;100.00;101901.84;2070886;28;20176;-67
2022/11/07 02:56:12;;;;;;;21.37;12.23;;;;;;;16.47;100.00;101895.13;2071494;28;20185;-67
2022/11/07 02:57:13;;;;;;;19.00;13.23;;;;;;;16.48;100.00;101899.47;2072122;28;20538;-67
2022/11/07 02:58:13;;;;;;;20.90;12.40;;;;;;;16.44;100.00;101891.19;2071628;28;20220;-67
2022/11/07 02:59:13;;;;;;;20.80;13.00;;;;;;;16.47;100.00;101904.28;2071551;28;20194;-67
2022/11/07 03:00:14;;;;;;;20.93;11.87;;;;;;;16.45;100.00;101896.31;2070773;28;20189;-67
2022/11/07 03:01:15;;;;;;;19.43;12.90;;;;;;;16.48;100.00;101902.28;2071537;28;20197;-67
2022/11/07 03:02:15;;;;;;;22.07;13.10;;;;;;;16.46;100.00;101902.72;2070502;28;20213;-67
2022/11/07 03:03:16;;;;;;;21.93;12.40;;;;;;;16.48;100.00;101901.03;2071587;28;20271;-67
2022/11/07 03:04:18;;;;;;;20.77;12.73;;;;;;;16.48;100.00;101898.25;2072099;28;20622;-67
2022/11/07 03:05:19;;;;;;;18.27;12.30;;;;;;;16.49;100.00;101910.25;2071474;28;20436;-67
2022/11/07 03:06:23;;;;;;;21.20;12.60;;;;;;;16.25;100.00;101878.09;2071628;28;20427;-67
2022/11/07 03:07:24;;;;;;;24.60;12.67;;;;;;;16.47;100.00;101903.50;2070832;28;20437;-67
2022/11/07 03:08:25;;;;;;;22.20;12.13;;;;;;;16.45;100.00;101910.31;2070566;28;20865;-67
2022/11/07 03:09:25;;;;;;;17.80;12.40;;;;;;;16.45;100.00;101909.53;2070217;28;20436;-67
2022/11/07 03:10:25;;;;;;;21.30;13.17;;;;;;;16.43;100.00;101903.59;2071767;28;20265;-67
2022/11/07 03:11:26;;;;;;;22.47;12.33;;;;;;;16.35;100.00;101902.97;2071652;28;20182;-67
2022/11/07 03:12:26;;;;;;;18.13;12.10;;;;;;;16.39;100.00;101914.88;2071910;28;20629;-67
2022/11/07 03:13:27;;;;;;;19.73;12.17;;;;;;;16.38;100.00;101910.47;2071407;28;20188;-67
2022/11/07 03:14:27;;;;;;;21.30;12.57;;;;;;;16.37;100.00;101911.72;2070743;28;20193;-67
2022/11/07 03:15:28;;;;;;;19.50;12.30;;;;;;;16.38;100.00;101913.28;2071030;28;20185;-67
2022/11/07 03:16:28;;;;;;;21.00;12.67;;;;;;;16.35;100.00;101905.00;2070422;28;20331;-67
2022/11/07 03:17:28;;;;;;;16.17;12.43;;;;;;;16.36;100.00;101921.34;2071638;28;20197;-67
2022/11/07 03:18:29;;;;;;;19.10;13.37;;;;;;;16.31;100.00;101915.50;2071419;28;20177;-67
2022/11/07 03:19:29;;;;;;;19.10;13.40;;;;;;;16.07;100.00;101894.56;2070923;28;20207;-67
2022/11/07 03:20:30;;;;;;;20.40;13.80;;;;;;;16.19;100.00;101919.03;2071856;28;20221;-67
2022/11/07 03:21:30;;;;;;;19.33;13.07;;;;;;;16.06;100.00;101909.75;2071752;28;20192;-67
2022/11/07 03:22:30;;;;;;;21.17;12.87;;;;;;;16.16;100.00;101939.47;2070782;28;20224;-67
2022/11/07 03:23:34;;;;;;;21.03;14.10;;;;;;;16.11;100.00;101912.81;2070525;28;20203;-67
2022/11/07 03:24:34;;;;;;;21.07;13.43;;;;;;;16.19;100.00;101927.41;2071535;28;20668;-67
2022/11/07 03:25:34;;;;;;;21.57;13.30;;;;;;;16.19;100.00;101925.38;2071218;28;20447;-67
2022/11/07 03:26:35;;;;;;;16.60;13.07;;;;;;;15.79;100.00;101861.75;2071796;28;20270;-67
2022/11/07 03:27:35;;;;;;;19.00;13.30;;;;;;;16.21;100.00;101922.16;2070839;28;20183;-67
2022/11/07 03:28:36;;;;;;;19.43;13.13;;;;;;;16.17;100.00;101916.66;2071822;28;20197;-67
2022/11/07 03:29:36;;;;;;;18.07;12.73;;;;;;;16.23;100.00;101928.06;2071461;28;20302;-67
2022/11/07 03:30:37;;;;;;;18.63;13.60;;;;;;;16.25;100.00;101922.84;2071645;28;20251;-67
2022/11/07 03:31:37;;;;;;;19.77;13.00;;;;;;;16.23;100.00;101933.69;2071382;28;20242;-67
2022/11/07 03:32:38;;;;;;;20.00;12.93;;;;;;;15.98;100.00;101897.22;2073231;28;20268;-67
2022/11/07 03:33:38;;;;;;;19.30;12.20;;;;;;;15.61;100.00;101827.88;2073213;28;20269;-67
2022/11/07 03:34:38;;;;;;;16.13;11.97;;;;;;;16.25;100.00;101929.22;2072662;28;20191;-67
2022/11/07 03:35:39;;;;;;;19.37;12.37;;;;;;;16.26;100.00;101936.41;2072335;28;20205;-67
2022/11/07 03:36:39;;;;;;;18.60;12.97;;;;;;;16.28;100.00;101935.94;2073250;28;20218;-67
2022/11/07 03:37:40;;;;;;;18.10;12.80;;;;;;;16.28;100.00;101925.53;2073073;28;20191;-67
2022/11/07 03:38:40;;;;;;;17.97;12.33;;;;;;;16.23;100.00;101923.28;2071955;28;20250;-67
2022/11/07 03:39:41;;;;;;;22.33;12.67;;;;;;;16.25;100.00;101925.66;2072879;28;20640;-67
2022/11/07 03:40:44;;;;;;;19.20;11.67;;;;;;;16.25;100.00;101932.00;2072345;28;20176;-67
2022/11/07 03:41:44;;;;;;;19.23;11.67;;;;;;;16.26;100.00;101927.22;2072421;28;20185;-67
2022/11/07 03:42:45;;;;;;;17.47;10.80;;;;;;;16.25;100.00;101937.59;2072928;28;20455;-67
2022/11/07 03:43:46;;;;;;;15.93;10.77;;;;;;;15.29;100.00;101772.00;2072611;28;20210;-67
2022/11/07 03:44:46;;;;;;;16.90;10.80;;;;;;;16.26;100.00;101928.00;2072869;28;20557;-67
2022/11/07 03:45:47;;;;;;;16.77;10.90;;;;;;;16.28;100.00;101930.34;2072987;28;20218;-67
2022/11/07 03:46:47;;;;;;;14.50;10.37;;;;;;;16.29;100.00;101931.94;2073250;28;20184;-67
2022/11/07 03:47:48;;;;;;;20.90;11.03;;;;;;;16.24;100.00;101932.47;2072740;28;20666;-67
2022/11/07 03:48:48;;;;;;;19.93;10.27;;;;;;;16.27;100.00;101939.97;2072853;28;20196;-67
2022/11/07 03:49:49;;;;;;;15.87;9.70;;;;;;;16.29;100.00;101931.94;2072730;28;20888;-67
2022/11/07 03:50:49;;;;;;;16.97;10.13;;;;;;;16.29;100.00;101926.34;2073014;28;20246;-67
2022/11/07 03:51:49;;;;;;;16.17;9.77;;;;;;;16.22;100.00;101916.13;2073678;28;20663;-67
2022/11/07 03:52:50;;;;;;;17.43;10.03;;;;;;;16.33;100.00;101932.59;2072764;28;20192;-67
2022/11/07 03:53:50;;;;;;;16.93;10.13;;;;;;;16.22;100.00;101920.91;2073702;28;20176;-67
2022/11/07 03:54:51;;;;;;;20.87;10.60;;;;;;;16.32;100.00;101942.22;2072667;28;20246;-67
2022/11/07 03:55:54;;;;;;;15.97;9.77;;;;;;;15.81;100.00;101851.69;2072804;28;20193;-67
2022/11/07 03:56:54;;;;;;;14.70;9.57;;;;;;;15.60;100.00;101821.50;2073254;28;20196;-67
2022/11/07 03:57:55;;;;;;;14.03;9.93;;;;;;;16.32;100.00;101939.44;2072770;28;20430;-67
2022/11/07 03:58:55;;;;;;;16.13;8.97;;;;;;;16.31;100.00;101943.47;2073033;28;20559;-67
2022/11/07 03:59:56;;;;;;;17.23;8.10;;;;;;;16.26;100.00;101936.41;2073241;28;20193;-67
2022/11/07 04:00:56;;;;;;;13.90;7.57;;;;;;;16.18;100.00;101934.22;2073155;28;20260;-67
2022/11/07 04:01:56;;;;;;;13.70;8.13;;;;;;;16.16;100.00;101934.66;2073548;28;20205;-67
2022/11/07 04:02:57;;;;;;;12.60;7.60;;;;;;;16.20;100.00;101940.97;2073222;28;20188;-67
2022/11/07 04:03:57;;;;;;;14.80;8.10;;;;;;;16.24;100.00;101938.84;2072331;28;20197;-67
2022/11/07 04:04:58;;;;;;;12.73;7.67;;;;;;;15.78;100.00;101872.13;2073020;28;20221;-67
2022/11/07 04:05:58;;;;;;;17.60;8.20;;;;;;;16.21;100.00;101936.94;2073182;28;20186;-67
2022/11/07 04:06:59;;;;;;;12.33;7.37;;;;;;;16.22;100.00;101944.09;2073578;28;20436;-67
2022/11/07 04:07:59;;;;;;;14.53;8.53;;;;;;;16.25;100.00;101943.19;2072801;28;20583;-67
2022/11/07 04:08:59;;;;;;;15.50;8.40;;;;;;;16.17;100.00;101936.22;2073120;28;20261;-67
2022/11/07 04:10:00;;;;;;;18.27;7.87;;;;;;;16.18;100.00;101943.41;2073241;28;20248;-67
2022/11/07 04:11:00;;;;;;;16.80;8.13;;;;;;;16.18;100.00;101945.41;2072991;28;20858;-67
2022/11/07 04:17:17;;;;;;;13.47;7.33;;;;;;;16.10;100.00;101924.44;2073652;28;20937;-67
2022/11/07 04:18:17;;;;;;;15.07;7.27;;;;;;;16.23;100.00;101937.25;2070785;28;20826;-67
2022/11/07 04:19:18;;;;;;;16.23;7.10;;;;;;;16.22;100.00;101941.28;2073157;28;20915;-67
2022/11/07 04:20:18;;;;;;;12.07;7.13;;;;;;;16.17;100.00;101938.22;2072917;28;20228;-67
2022/11/07 04:21:19;;;;;;;13.17;7.90;;;;;;;16.23;100.00;101945.66;2073064;28;20187;-67
2022/11/07 04:22:19;;;;;;;10.40;7.10;;;;;;;16.22;100.00;101935.69;2073160;28;20219;-67
2022/11/07 04:23:20;;;;;;;14.20;7.80;;;;;;;16.14;100.00;101925.91;2073581;28;20574;-67
2022/11/07 04:24:20;;;;;;;12.40;7.07;;;;;;;16.21;100.00;101931.34;2072895;28;20275;-67
2022/11/07 04:27:41;;;;;;;13.60;7.20;;;;;;;16.21;100.00;101934.13;2071858;28;20182;-67
2022/11/07 04:28:00;;;;;;;12.13;6.70;;;;;;;16.27;100.00;101932.38;2072722;28;20469;-67
2022/11/07 04:29:00;;;;;;;13.20;6.57;;;;;;;16.28;100.00;101933.94;2072067;28;20437;-67
2022/11/07 04:30:17;;;;;;;15.30;6.87;;;;;;;16.29;100.00;101934.72;2071716;28;20266;-67
2022/11/07 04:31:18;;;;;;;15.07;6.07;;;;;;;16.26;100.00;101936.41;2072281;28;20175;-67
2022/11/07 04:32:18;;;;;;;12.17;6.50;;;;;;;15.59;100.00;101835.91;2071745;28;20444;-67
2022/11/07 04:33:19;;;;;;;10.57;6.50;;;;;;;16.26;100.00;101938.41;2080705;28;20192;-67
2022/11/07 04:34:19;;;;;;;11.43;6.17;;;;;;;16.26;100.00;101935.59;2080395;28;20175;-67
2022/11/07 04:35:22;;;;;;;13.60;7.30;;;;;;;16.03;100.00;101899.47;2072815;28;20568;-67
2022/11/07 04:36:22;;;;;;;11.43;6.80;;;;;;;16.29;100.00;101927.13;2073504;28;20189;-67
2022/11/07 04:37:22;;;;;;;12.13;6.90;;;;;;;16.29;100.00;101931.94;2073202;28;20429;-67
2022/11/07 04:38:23;;;;;;;13.87;6.37;;;;;;;15.32;100.00;101782.31;2073054;28;20190;-67
2022/11/07 04:39:23;;;;;;;11.40;6.33;;;;;;;16.25;100.00;101920.06;2072736;28;20269;-67
2022/11/07 04:40:24;;;;;;;11.47;6.70;;;;;;;16.29;100.00;101927.13;2072121;28;20193;-67
2022/11/07 04:41:25;;;;;;;11.03;6.27;;;;;;;16.33;100.00;101930.59;2080383;28;20200;-67
2022/11/07 04:42:25;;;;;;;13.83;6.77;;;;;;;16.33;100.00;101925.00;2080336;28;20263;-67
2022/11/07 04:43:26;;;;;;;12.23;6.97;;;;;;;16.33;100.00;101924.22;2072087;28;20192;-67
2022/11/07 04:44:26;;;;;;;11.63;6.70;;;;;;;16.35;100.00;101921.78;2073242;28;20691;-67
2022/11/07 04:45:27;;;;;;;11.20;6.83;;;;;;;16.32;100.00;101926.25;2072501;28;20201;-67